Time;durP1;ratioP1;P1;durP2;ratioP2;P2;SDS_P1;SDS_P2;PMS_P1;PMS_P2;Temp;Humidity;BMP_temperature;BMP_pressure;BME280_temperature;BME280_humidity;BME280_pressure;Samples;Min_cycle;Max_cycle;Signal;HPM_P1;HPM_P2
2023/06/13 00:00:13;;;;;;;9.20;8.30;;;;;;;17.86;100.00;94179.84;5089770;28;20182;-47
2023/06/13 00:02:41;;;;;;;8.70;7.87;;;;;;;17.90;100.00;94175.88;5089236;28;20204;-44
2023/06/13 00:05:10;;;;;;;9.23;8.33;;;;;;;17.91;100.00;94173.09;5088876;28;20687;-44
2023/06/13 00:07:37;;;;;;;9.37;8.23;;;;;;;17.91;100.00;94165.31;5089363;28;20181;-44
2023/06/13 00:10:05;;;;;;;10.87;7.37;;;;;;;17.89;100.00;94161.34;5089413;28;20298;-45
2023/06/13 00:12:32;;;;;;;12.83;8.13;;;;;;;17.87;100.00;94164.13;5089500;28;20645;-47
2023/06/13 00:15:00;;;;;;;9.50;8.43;;;;;;;17.62;100.00;94114.72;5088994;28;20243;-45
2023/06/13 00:17:31;;;;;;;9.40;8.60;;;;;;;17.82;100.00;94150.97;5088709;28;20229;-46
2023/06/13 00:19:59;;;;;;;10.57;8.33;;;;;;;17.86;100.00;94154.78;5088755;28;20614;-47
2023/06/13 00:22:26;;;;;;;9.57;8.40;;;;;;;17.88;100.00;94150.22;5089152;28;20185;-46
2023/06/13 00:24:53;;;;;;;8.77;7.70;;;;;;;17.88;100.00;94150.22;5088980;28;20200;-47
2023/06/13 00:27:19;;;;;;;11.60;8.27;;;;;;;17.92;100.00;94142.84;5089318;28;20205;-44
2023/06/13 00:29:46;;;;;;;9.10;8.20;;;;;;;17.87;100.00;94140.03;5088601;28;20182;-45
2023/06/13 00:32:13;;;;;;;13.07;9.43;;;;;;;17.90;100.00;94144.84;5089056;28;20196;-45
2023/06/13 00:34:43;;;;;;;8.83;8.03;;;;;;;17.72;100.00;94124.69;5089066;28;20209;-46
2023/06/13 00:37:12;;;;;;;9.83;8.63;;;;;;;17.78;100.00;94137.63;5089148;28;20178;-46
2023/06/13 00:39:39;;;;;;;11.20;8.37;;;;;;;17.85;100.00;94150.59;5088399;28;20200;-44
2023/06/13 00:42:07;;;;;;;11.63;8.20;;;;;;;17.86;100.00;94152.19;5089987;28;20182;-46
2023/06/13 00:44:34;;;;;;;10.57;8.23;;;;;;;17.87;100.00;94150.41;5092932;28;20182;-45
2023/06/13 00:47:03;;;;;;;9.20;8.30;;;;;;;17.77;100.00;94138.63;5092909;28;20197;-47
2023/06/13 00:49:31;;;;;;;8.73;7.83;;;;;;;17.79;100.00;94144.44;5092498;28;20193;-46
2023/06/13 00:52:04;;;;;;;11.40;8.60;;;;;;;17.84;100.00;94145.63;5092321;28;20200;-45
2023/06/13 00:54:32;;;;;;;10.70;9.70;;;;;;;17.81;100.00;94144.22;5092907;28;20225;-44
2023/06/13 00:56:59;;;;;;;10.33;9.20;;;;;;;17.82;100.00;94145.00;5092363;28;20194;-44
2023/06/13 00:59:26;;;;;;;13.67;8.47;;;;;;;17.77;100.00;94143.03;5092319;28;20182;-43
2023/06/13 01:01:53;;;;;;;12.63;8.83;;;;;;;17.74;100.00;94135.63;5092233;28;20628;-44
2023/06/13 01:04:20;;;;;;;9.93;8.87;;;;;;;17.72;100.00;94140.19;5092831;28;20190;-46
2023/06/13 01:06:49;;;;;;;9.93;9.00;;;;;;;17.72;100.00;94143.56;5092286;28;20667;-45
2023/06/13 01:09:18;;;;;;;11.50;8.97;;;;;;;17.73;100.00;94137.41;5092138;28;20201;-46
2023/06/13 01:11:59;;;;;;;10.27;8.63;;;;;;;17.70;100.00;94142.16;5091643;28;20189;-43
2023/06/13 01:14:36;;;;;;;9.67;7.97;;;;;;;17.65;100.00;94137.56;5092360;28;20231;-43
2023/06/13 01:17:10;;;;;;;9.77;8.00;;;;;;;17.63;100.00;94143.94;5091947;28;20231;-43
2023/06/13 01:19:40;;;;;;;8.57;7.77;;;;;;;17.61;100.00;94144.13;5092153;28;20190;-44
2023/06/13 01:22:12;;;;;;;12.43;7.80;;;;;;;17.60;100.00;94141.75;5091700;28;20557;-44
2023/06/13 01:24:52;;;;;;;12.77;8.67;;;;;;;17.54;100.00;94138.16;5091900;28;20194;-44
2023/06/13 01:27:22;;;;;;;11.90;8.53;;;;;;;17.45;100.00;94134.94;5092211;28;20207;-44
2023/06/13 01:29:51;;;;;;;10.03;9.03;;;;;;;17.40;100.00;94137.31;5091938;28;20273;-45
2023/06/13 01:32:21;;;;;;;10.70;8.03;;;;;;;17.35;100.00;94138.88;5091372;28;20228;-46
2023/06/13 01:34:48;;;;;;;16.23;8.57;;;;;;;17.29;100.00;94143.03;5091553;28;20209;-46
2023/06/13 01:37:16;;;;;;;10.73;7.73;;;;;;;17.21;100.00;94146.56;5092063;28;20194;-45
2023/06/13 01:39:44;;;;;;;11.30;9.13;;;;;;;17.16;100.00;94142.97;5091678;28;20190;-46
2023/06/13 01:42:11;;;;;;;9.43;8.43;;;;;;;16.95;100.00;94118.00;5091616;28;20545;-44
2023/06/13 01:44:39;;;;;;;13.97;8.30;;;;;;;17.05;100.00;94139.13;5091793;28;20264;-44
2023/06/13 01:47:17;;;;;;;9.40;8.47;;;;;;;16.76;100.00;94098.84;5091298;28;20636;-44
2023/06/13 01:49:54;;;;;;;9.53;7.73;;;;;;;16.97;100.00;94145.25;5091699;28;20648;-45
2023/06/13 01:52:29;;;;;;;9.90;7.53;;;;;;;16.93;100.00;94136.28;5091482;28;20181;-44
2023/06/13 01:55:03;;;;;;;11.43;7.80;;;;;;;16.90;100.00;94139.25;5090277;28;20221;-43
2023/06/13 01:57:37;;;;;;;7.93;7.10;;;;;;;16.84;100.00;94137.44;5091335;28;20272;-45
2023/06/13 02:00:09;;;;;;;10.07;7.03;;;;;;;16.80;100.00;94138.78;5091215;28;20224;-45
2023/06/13 02:02:36;;;;;;;8.30;7.40;;;;;;;16.76;100.00;94133.22;5091402;28;20248;-45
2023/06/13 02:05:03;;;;;;;9.20;7.23;;;;;;;16.72;100.00;94139.72;5091021;28;20198;-45
2023/06/13 02:07:31;;;;;;;7.50;6.73;;;;;;;16.69;100.00;94137.50;5091225;28;20178;-46
2023/06/13 02:10:00;;;;;;;7.50;6.80;;;;;;;16.65;100.00;94133.69;5091581;28;20189;-45
2023/06/13 02:12:26;;;;;;;8.60;6.50;;;;;;;16.64;100.00;94139.06;5091396;28;20185;-46
2023/06/13 02:14:53;;;;;;;7.97;7.17;;;;;;;16.57;100.00;94128.66;5090754;28;20274;-45
2023/06/13 02:17:23;;;;;;;8.53;6.40;;;;;;;16.55;100.00;94139.19;5090865;28;20227;-44
2023/06/13 02:19:50;;;;;;;6.83;6.13;;;;;;;16.51;100.00;94125.06;5091024;28;20178;-44
2023/06/13 02:22:17;;;;;;;12.33;6.80;;;;;;;16.50;100.00;94136.38;5090850;28;20194;-45
2023/06/13 02:24:43;;;;;;;6.63;5.83;;;;;;;16.48;100.00;94137.53;5090836;28;20193;-45
2023/06/13 02:27:10;;;;;;;8.27;6.17;;;;;;;16.44;100.00;94131.16;5090482;28;20197;-45
2023/06/13 02:29:38;;;;;;;6.47;5.87;;;;;;;16.44;100.00;94136.31;5090772;28;20182;-44
2023/06/13 02:32:06;;;;;;;7.17;6.40;;;;;;;16.41;100.00;94141.88;5090763;28;20190;-45
2023/06/13 02:34:34;;;;;;;7.53;5.90;;;;;;;16.40;100.00;94142.84;5090924;28;20213;-44
2023/06/13 02:37:00;;;;;;;6.53;5.90;;;;;;;16.34;100.00;94138.44;5090235;28;20197;-44
2023/06/13 02:39:27;;;;;;;5.90;5.30;;;;;;;16.35;100.00;94143.41;5090305;28;20209;-46
2023/06/13 02:41:54;;;;;;;8.43;5.77;;;;;;;16.36;100.00;94149.34;5090615;28;20254;-45
2023/06/13 02:44:21;;;;;;;5.80;5.30;;;;;;;16.34;100.00;94156.50;5090464;28;20205;-46
2023/06/13 02:46:47;;;;;;;7.07;5.47;;;;;;;16.31;100.00;94155.88;5089838;28;20193;-45
2023/06/13 02:49:14;;;;;;;5.70;5.20;;;;;;;16.32;100.00;94151.53;5090182;28;20188;-45
2023/06/13 02:51:42;;;;;;;6.40;5.43;;;;;;;16.35;100.00;94150.34;5090719;28;20196;-44
2023/06/13 02:54:09;;;;;;;8.83;5.57;;;;;;;16.37;100.00;94158.72;5090760;28;20185;-42
2023/06/13 02:56:36;;;;;;;6.67;5.30;;;;;;;16.38;100.00;94158.50;5089764;28;20738;-43
2023/06/13 02:59:03;;;;;;;5.73;5.23;;;;;;;16.37;100.00;94150.97;5090065;28;20197;-46
2023/06/13 03:01:30;;;;;;;6.03;5.47;;;;;;;16.35;100.00;94147.75;5090331;28;20174;-45
2023/06/13 03:03:57;;;;;;;6.60;5.90;;;;;;;16.25;100.00;94146.31;5090015;28;20193;-44
2023/06/13 03:06:26;;;;;;;9.67;5.53;;;;;;;16.36;100.00;94159.66;5090342;28;20230;-45
2023/06/13 03:08:57;;;;;;;8.53;6.17;;;;;;;16.37;100.00;94167.25;5089813;28;20190;-44
2023/06/13 03:11:24;;;;;;;6.80;6.00;;;;;;;16.40;100.00;94164.28;5089639;28;20189;-45
2023/06/13 03:13:51;;;;;;;6.97;6.37;;;;;;;16.44;100.00;94177.59;5090118;28;20181;-42
2023/06/13 03:16:18;;;;;;;7.53;6.50;;;;;;;16.48;100.00;94171.09;5069680;28;20238;-46
2023/06/13 03:18:45;;;;;;;9.27;7.70;;;;;;;16.54;100.00;94170.38;5069582;28;20202;-44
2023/06/13 03:21:12;;;;;;;9.97;8.27;;;;;;;16.58;100.00;94173.34;5076140;28;20189;-43
2023/06/13 03:23:39;;;;;;;9.30;8.17;;;;;;;16.58;100.00;94163.84;5089662;28;20185;-45
2023/06/13 03:26:09;;;;;;;10.20;9.20;;;;;;;16.63;100.00;94163.28;5090215;28;20197;-45
2023/06/13 03:28:36;;;;;;;11.43;9.27;;;;;;;16.69;100.00;94159.94;5089633;28;20243;-44
2023/06/13 03:31:04;;;;;;;13.90;10.07;;;;;;;16.67;100.00;94144.66;5089869;28;20642;-43
2023/06/13 03:33:30;;;;;;;13.27;10.97;;;;;;;16.77;100.00;94155.47;5089322;28;20190;-47
2023/06/13 03:35:57;;;;;;;11.83;10.60;;;;;;;16.82;100.00;94165.22;5090253;28;20259;-44
2023/06/13 03:38:24;;;;;;;13.63;11.27;;;;;;;16.87;100.00;94167.22;5089619;28;20189;-44
2023/06/13 03:40:50;;;;;;;13.17;11.23;;;;;;;16.87;100.00;94160.28;5089773;28;20599;-45
2023/06/13 03:43:19;;;;;;;15.43;11.33;;;;;;;16.97;100.00;94157.38;5089020;28;20656;-44
2023/06/13 03:45:46;;;;;;;12.50;11.20;;;;;;;16.97;100.00;94168.50;5089695;28;20193;-46
2023/06/13 03:48:12;;;;;;;14.57;11.07;;;;;;;17.04;100.00;94164.16;5089492;28;20182;-44
2023/06/13 03:50:39;;;;;;;13.43;11.67;;;;;;;17.08;100.00;94167.16;5089148;28;20194;-43
2023/06/13 03:53:06;;;;;;;12.93;10.67;;;;;;;17.14;100.00;94169.00;5089058;28;20185;-44
2023/06/13 03:55:33;;;;;;;17.70;11.93;;;;;;;17.32;100.00;94175.44;5089020;28;20217;-45
2023/06/13 03:58:00;;;;;;;15.33;10.73;;;;;;;17.53;100.00;94177.94;5089418;28;20192;-45
2023/06/13 04:00:29;;;;;;;14.47;11.17;;;;;;;17.66;100.00;94177.97;5089144;28;20189;-45
2023/06/13 04:02:57;;;;;;;17.00;11.70;;;;;;;17.68;100.00;94175.97;5089442;28;20186;-43
2023/06/13 04:05:25;;;;;;;15.10;11.70;;;;;;;17.75;100.00;94178.63;5089224;28;20201;-45
2023/06/13 04:07:54;;;;;;;15.63;11.57;;;;;;;17.79;100.00;94182.44;5089464;28;20243;-46
2023/06/13 04:10:21;;;;;;;15.37;11.20;;;;;;;17.85;100.00;94184.22;5090178;28;20853;-45
2023/06/13 04:12:48;;;;;;;15.73;12.07;;;;;;;17.92;100.00;94187.63;5089178;28;20185;-43
2023/06/13 04:15:16;;;;;;;22.43;12.73;;;;;;;17.96;100.00;94181.09;5088982;28;20703;-45
2023/06/13 04:17:44;;;;;;;16.97;11.73;;;;;;;18.03;100.00;94186.25;5090970;28;20217;-46
2023/06/13 04:20:14;;;;;;;15.23;11.77;;;;;;;18.10;100.00;94186.28;5093142;28;20222;-45
2023/06/13 04:22:43;;;;;;;19.50;12.33;;;;;;;18.17;100.00;94185.28;5093199;28;20204;-44
2023/06/13 04:25:10;;;;;;;17.90;12.50;;;;;;;18.27;99.94;94185.72;5093050;28;20618;-47
2023/06/13 04:27:38;;;;;;;16.07;11.97;;;;;;;18.39;99.64;94192.88;5092747;28;20193;-46
2023/06/13 04:30:06;;;;;;;18.60;12.33;;;;;;;18.52;99.25;94196.31;5093023;28;20692;-43
2023/06/13 04:32:34;;;;;;;16.03;12.13;;;;;;;18.66;99.21;94189.31;5085005;28;20196;-45
2023/06/13 04:35:03;;;;;;;15.90;12.47;;;;;;;18.84;98.90;94193.94;5093073;28;20716;-45
2023/06/13 04:37:30;;;;;;;18.73;13.17;;;;;;;19.08;97.97;94199.47;5092252;28;20513;-45
2023/06/13 04:39:57;;;;;;;16.87;12.47;;;;;;;19.25;96.85;94200.63;5093173;28;20246;-46
2023/06/13 04:42:27;;;;;;;16.03;11.87;;;;;;;19.34;95.72;94202.00;5092672;28;20668;-45
2023/06/13 04:44:56;;;;;;;15.17;11.90;;;;;;;19.53;94.61;94198.56;5093087;28;20194;-44
2023/06/13 04:47:24;;;;;;;14.60;11.90;;;;;;;19.83;93.19;94207.69;5092787;28;20239;-47
2023/06/13 04:49:58;;;;;;;17.00;12.43;;;;;;;20.03;92.17;94211.78;5092944;28;20666;-44
2023/06/13 04:52:27;;;;;;;17.23;12.10;;;;;;;20.09;89.80;94214.53;5092801;28;20254;-46
2023/06/13 04:54:55;;;;;;;19.33;11.93;;;;;;;20.04;88.71;94212.56;5092666;28;20217;-41
2023/06/13 04:57:22;;;;;;;18.40;11.80;;;;;;;20.10;88.87;94214.31;5091559;28;20213;-43
2023/06/13 04:59:49;;;;;;;15.87;13.67;;;;;;;20.18;88.52;94218.47;5091934;28;20189;-46
2023/06/13 05:02:16;;;;;;;18.90;13.27;;;;;;;20.20;88.04;94222.44;5092054;28;20193;-45
2023/06/13 05:04:44;;;;;;;13.65;11.57;;;;;;;20.27;86.54;94220.63;5086432;28;20753;-43
2023/06/13 05:07:15;;;;;;;16.38;13.00;;;;;;;20.25;86.52;94222.63;5072350;28;20204;-45
2023/06/13 05:09:43;;;;;;;23.17;13.07;;;;;;;20.45;87.32;94227.69;5086015;28;20255;-45
2023/06/13 05:12:10;;;;;;;17.77;13.02;;;;;;;20.67;86.03;94222.97;5092294;28;20190;-45
2023/06/13 05:14:37;;;;;;;22.02;12.35;;;;;;;20.89;85.26;94220.00;5092156;28;20197;-44
2023/06/13 05:17:06;;;;;;;16.92;12.50;;;;;;;21.10;83.48;94226.63;5092129;28;20257;-45
2023/06/13 05:19:34;;;;;;;14.18;12.75;;;;;;;21.32;82.73;94221.84;5091771;28;20229;-44
2023/06/13 05:22:03;;;;;;;16.20;12.27;;;;;;;21.58;82.48;94213.75;5086948;28;20186;-46
2023/06/13 05:24:30;;;;;;;18.80;13.00;;;;;;;21.82;80.10;94219.13;5092143;28;20259;-44
2023/06/13 05:26:59;;;;;;;16.67;12.13;;;;;;;22.07;78.39;94216.41;5092549;28;20189;-45
2023/06/13 05:29:26;;;;;;;13.93;11.10;;;;;;;22.26;77.16;94221.38;5090663;28;20254;-44
2023/06/13 05:31:53;;;;;;;13.63;11.75;;;;;;;22.53;76.32;94216.56;5092552;28;20238;-43
2023/06/13 05:34:20;;;;;;;17.10;11.73;;;;;;;22.70;75.91;94219.31;5091988;28;20186;-44
2023/06/13 05:36:47;;;;;;;16.67;12.30;;;;;;;22.95;74.81;94223.59;5091491;28;20216;-45
2023/06/13 05:39:15;;;;;;;16.10;10.57;;;;;;;23.16;73.08;94227.47;5091635;28;20200;-46
2023/06/13 05:41:42;;;;;;;11.65;10.48;;;;;;;23.22;72.10;94218.72;5088376;28;20204;-47
2023/06/13 05:44:10;;;;;;;16.05;10.35;;;;;;;23.04;71.91;94220.41;5089292;28;20189;-45
2023/06/13 05:46:37;;;;;;;10.30;8.45;;;;;;;22.73;72.93;94184.22;5089364;28;20188;-47
2023/06/13 05:49:04;;;;;;;13.80;9.30;;;;;;;23.29;72.63;94222.81;5087782;28;20186;-44
2023/06/13 05:51:31;;;;;;;10.23;8.90;;;;;;;23.49;71.71;94196.34;5088350;28;20200;-44
2023/06/13 05:53:58;;;;;;;8.60;7.72;;;;;;;23.95;70.77;94222.59;5089190;28;20266;-45
2023/06/13 05:56:25;;;;;;;9.48;7.38;;;;;;;24.17;69.04;94227.97;5088321;28;20829;-47
2023/06/13 05:58:52;;;;;;;11.27;8.93;;;;;;;24.44;68.25;94236.09;5088741;28;20201;-46
2023/06/13 06:01:21;;;;;;;10.63;9.50;;;;;;;24.49;68.27;94236.97;5088566;28;20276;-45
2023/06/13 06:03:47;;;;;;;10.63;8.63;;;;;;;24.32;68.12;94227.47;5089192;28;20285;-47
2023/06/13 06:06:14;;;;;;;9.98;8.98;;;;;;;24.24;68.18;94226.81;5087567;28;20357;-46
2023/06/13 06:08:41;;;;;;;12.43;9.00;;;;;;;24.11;68.46;94226.31;5088811;28;20193;-45
2023/06/13 06:11:08;;;;;;;12.65;8.82;;;;;;;24.01;69.12;94219.88;5088089;28;20295;-45
2023/06/13 06:13:35;;;;;;;15.52;9.63;;;;;;;23.98;70.52;94217.72;5088935;28;20193;-47
2023/06/13 06:16:02;;;;;;;9.98;8.77;;;;;;;24.04;70.09;94223.81;5088285;28;20237;-45
2023/06/13 06:18:30;;;;;;;9.68;8.50;;;;;;;24.01;69.80;94219.88;5088703;28;20216;-45
2023/06/13 06:20:57;;;;;;;9.45;8.23;;;;;;;24.02;69.64;94224.06;5088024;28;20626;-45
2023/06/13 06:23:23;;;;;;;9.73;8.20;;;;;;;24.02;69.27;94226.69;5088892;28;20177;-43
2023/06/13 06:25:51;;;;;;;13.13;8.43;;;;;;;24.10;69.68;94222.91;5087631;28;20607;-44
2023/06/13 06:28:17;;;;;;;9.98;7.97;;;;;;;24.24;69.73;94231.25;5088093;28;20588;-42
2023/06/13 06:30:44;;;;;;;9.52;7.95;;;;;;;24.38;68.80;94227.34;5085801;28;20201;-47
2023/06/13 06:33:11;;;;;;;8.68;7.78;;;;;;;24.46;68.71;94231.41;5086934;28;20576;-44
2023/06/13 06:35:39;;;;;;;9.15;8.25;;;;;;;24.53;68.87;94219.00;5087764;28;20213;-46
2023/06/13 06:38:06;;;;;;;11.55;8.20;;;;;;;24.59;68.65;94228.50;5087722;28;20193;-44
2023/06/13 06:40:33;;;;;;;8.98;7.97;;;;;;;24.43;67.70;94222.22;5086326;28;20227;-42
2023/06/13 06:43:00;;;;;;;9.15;8.25;;;;;;;24.17;67.95;94201.84;5087145;28;20629;-44
2023/06/13 06:45:26;;;;;;;10.30;8.65;;;;;;;24.15;69.25;94212.53;5088081;28;20201;-44
2023/06/13 06:47:53;;;;;;;12.70;9.00;;;;;;;23.99;69.38;94210.66;5087779;28;20192;-44
2023/06/13 06:50:20;;;;;;;11.05;8.60;;;;;;;23.85;70.78;94225.03;5087575;28;20224;-44
2023/06/13 06:52:48;;;;;;;11.27;8.20;;;;;;;23.80;71.35;94220.50;5087158;28;20194;-44
2023/06/13 06:55:15;;;;;;;11.57;8.70;;;;;;;23.67;71.00;94220.75;5087557;28;20198;-46
2023/06/13 06:57:42;;;;;;;10.30;9.30;;;;;;;23.46;71.59;94222.13;5087331;28;20185;-45
2023/06/13 07:00:14;;;;;;;10.30;9.30;;;;;;;23.39;72.44;94218.81;5086829;28;20197;-45
2023/06/13 07:02:41;;;;;;;12.80;9.00;;;;;;;23.33;71.17;94220.53;5086106;28;20196;-44
2023/06/13 07:05:09;;;;;;;10.90;9.13;;;;;;;23.31;70.83;94225.19;5086435;28;20193;-43
2023/06/13 07:07:35;;;;;;;13.25;8.98;;;;;;;23.04;71.41;94203.97;5087185;28;20195;-46
2023/06/13 07:10:06;;;;;;;13.13;9.18;;;;;;;23.07;72.34;94223.59;5086712;28;20189;-45
2023/06/13 07:12:34;;;;;;;9.52;8.57;;;;;;;22.97;72.56;94226.75;5086800;28;20197;-44
2023/06/13 07:15:01;;;;;;;11.02;9.88;;;;;;;22.98;72.43;94217.94;5085087;28;20206;-42
2023/06/13 07:17:28;;;;;;;10.85;8.60;;;;;;;23.03;72.51;94218.03;5071009;28;20241;-44
2023/06/13 07:19:55;;;;;;;11.23;8.82;;;;;;;23.00;72.04;94215.88;5066833;28;20634;-45
2023/06/13 07:22:21;;;;;;;10.57;9.57;;;;;;;22.90;71.58;94218.28;5067007;28;20259;-44
2023/06/13 07:24:48;;;;;;;13.18;8.77;;;;;;;22.63;72.87;94194.41;5066144;28;20202;-44
2023/06/13 07:27:17;;;;;;;13.95;8.95;;;;;;;22.83;72.08;94218.31;5066491;28;20206;-43
2023/06/13 07:29:44;;;;;;;10.57;8.50;;;;;;;22.85;72.38;94210.31;5066132;28;20194;-43
2023/06/13 07:32:12;;;;;;;12.90;8.77;;;;;;;23.02;71.91;94213.84;5065763;28;20292;-44
2023/06/13 07:34:39;;;;;;;11.55;8.88;;;;;;;22.95;72.10;94189.69;5067589;28;20514;-45
2023/06/13 07:37:06;;;;;;;11.02;8.50;;;;;;;23.02;71.90;94217.25;5068683;28;20213;-45
2023/06/13 07:39:33;;;;;;;9.05;7.32;;;;;;;22.88;72.50;94212.44;5067530;28;20186;-41
2023/06/13 07:42:00;;;;;;;9.63;7.43;;;;;;;22.87;73.00;94209.03;5068081;28;20194;-43
2023/06/13 07:44:28;;;;;;;8.55;7.75;;;;;;;22.93;73.50;94208.19;5068726;28;20194;-46
2023/06/13 07:46:55;;;;;;;8.43;7.18;;;;;;;22.91;71.45;94210.22;5068785;28;20186;-46
2023/06/13 07:49:21;;;;;;;9.68;7.00;;;;;;;22.75;72.47;94214.25;5068748;28;20198;-44
2023/06/13 07:51:48;;;;;;;8.30;6.88;;;;;;;22.77;73.09;94214.81;5067431;28;20194;-44
2023/06/13 07:54:15;;;;;;;7.70;6.93;;;;;;;22.84;73.36;94208.69;5068739;28;20274;-44
2023/06/13 07:56:44;;;;;;;6.80;6.20;;;;;;;22.90;74.15;94210.44;5068030;28;20233;-43
2023/06/13 07:59:11;;;;;;;9.23;7.20;;;;;;;22.90;73.89;94208.63;5068700;28;20198;-44
2023/06/13 08:01:39;;;;;;;8.48;7.75;;;;;;;22.90;73.98;94210.44;5068607;28;20187;-45
2023/06/13 08:04:06;;;;;;;10.93;8.32;;;;;;;22.92;73.71;94208.38;5068436;28;20197;-44
2023/06/13 08:06:32;;;;;;;7.97;7.15;;;;;;;22.87;74.22;94210.84;5068462;28;20190;-45
2023/06/13 08:08:59;;;;;;;8.68;7.88;;;;;;;22.82;71.99;94205.53;5068584;28;20190;-45
2023/06/13 08:11:26;;;;;;;10.60;8.55;;;;;;;22.52;71.20;94191.53;5068017;28;20688;-46
2023/06/13 08:13:53;;;;;;;9.88;8.98;;;;;;;22.51;72.04;94199.59;5068697;28;20190;-46
2023/06/13 08:16:20;;;;;;;9.00;8.10;;;;;;;22.45;72.22;94206.50;5073741;28;20237;-44
2023/06/13 08:18:48;;;;;;;12.18;7.57;;;;;;;22.45;73.06;94208.28;5088413;28;20182;-44
2023/06/13 08:21:14;;;;;;;12.23;8.05;;;;;;;22.50;74.05;94206.63;5088708;28;20255;-43
2023/06/13 08:23:41;;;;;;;8.57;7.78;;;;;;;22.39;73.95;94168.28;5088292;28;20204;-43
2023/06/13 08:26:08;;;;;;;8.48;7.65;;;;;;;22.66;73.69;94202.53;5088604;28;20206;-44
2023/06/13 08:28:35;;;;;;;9.18;7.95;;;;;;;22.69;72.29;94203.91;5088544;28;20189;-43
2023/06/13 08:31:03;;;;;;;9.07;7.53;;;;;;;22.71;71.58;94194.06;5087717;28;20629;-45
2023/06/13 08:33:30;;;;;;;8.52;7.72;;;;;;;22.71;71.37;94201.88;5085008;28;20183;-44
2023/06/13 08:35:58;;;;;;;9.75;7.40;;;;;;;22.71;71.23;94196.66;5087809;28;20749;-44
2023/06/13 08:38:25;;;;;;;10.30;7.68;;;;;;;22.75;71.11;94195.19;5087966;28;20193;-43
2023/06/13 08:40:52;;;;;;;9.18;8.23;;;;;;;22.67;70.50;94195.53;5087443;28;20198;-43
2023/06/13 08:43:19;;;;;;;9.18;8.27;;;;;;;22.66;71.89;94191.31;5084761;28;20185;-42
2023/06/13 08:45:46;;;;;;;9.50;8.18;;;;;;;22.60;72.01;94192.25;5088290;28;20198;-42
2023/06/13 08:48:13;;;;;;;10.18;8.93;;;;;;;22.59;72.58;94191.44;5087803;28;20574;-42
2023/06/13 08:50:40;;;;;;;14.25;8.90;;;;;;;22.66;72.99;94193.94;5088466;28;20209;-43
2023/06/13 08:53:09;;;;;;;10.90;7.97;;;;;;;22.72;72.63;94187.84;5088244;28;20729;-43
2023/06/13 08:55:40;;;;;;;9.95;8.43;;;;;;;22.76;72.89;94197.59;5087781;28;20190;-41
2023/06/13 08:58:11;;;;;;;11.13;8.52;;;;;;;22.86;72.93;94196.22;5088255;28;20219;-45
2023/06/13 09:00:40;;;;;;;11.30;8.90;;;;;;;22.83;72.09;94194.06;5086838;28;20358;-46
2023/06/13 09:03:13;;;;;;;9.70;8.23;;;;;;;22.85;73.02;94205.09;5084232;28;20819;-46
2023/06/13 09:05:40;;;;;;;10.57;8.70;;;;;;;22.83;72.71;94202.69;5089295;28;20227;-45
2023/06/13 09:08:10;;;;;;;13.15;8.00;;;;;;;22.74;72.97;94201.44;5089144;28;20280;-44
2023/06/13 09:10:38;;;;;;;11.80;6.63;;;;;;;22.75;73.76;94200.41;5089213;28;20189;-45
2023/06/13 09:13:06;;;;;;;6.28;5.60;;;;;;;22.77;74.20;94201.00;5088771;28;20194;-45
2023/06/13 09:15:33;;;;;;;5.85;5.15;;;;;;;22.82;74.10;94198.50;5089217;28;20281;-46
2023/06/13 09:18:00;;;;;;;5.82;5.30;;;;;;;22.79;74.18;94199.72;5069627;28;20307;-45
2023/06/13 09:20:28;;;;;;;5.50;4.97;;;;;;;22.92;73.90;94208.38;5068353;28;20179;-42
2023/06/13 09:22:56;;;;;;;7.45;5.07;;;;;;;22.92;74.38;94214.41;5068806;28;20221;-46
2023/06/13 09:25:27;;;;;;;9.27;5.70;;;;;;;22.96;74.19;94215.53;5068287;28;20625;-45
2023/06/13 09:27:55;;;;;;;5.90;5.30;;;;;;;22.92;74.32;94222.22;5068841;28;20285;-44
2023/06/13 09:30:22;;;;;;;4.85;4.45;;;;;;;22.91;74.66;94217.25;5069138;28;20558;-45
2023/06/13 09:32:49;;;;;;;4.53;4.13;;;;;;;22.76;73.93;94199.41;5070629;28;20190;-46
2023/06/13 09:35:16;;;;;;;5.93;4.72;;;;;;;22.69;74.00;94214.34;5068898;28;20182;-42
2023/06/13 09:37:43;;;;;;;5.15;4.65;;;;;;;22.60;74.77;94218.31;5069793;28;20217;-44
2023/06/13 09:40:11;;;;;;;5.00;4.45;;;;;;;22.50;74.97;94211.81;5070573;28;20198;-43
2023/06/13 09:42:40;;;;;;;5.93;4.60;;;;;;;22.47;75.63;94195.84;5068939;28;20191;-44
2023/06/13 09:45:09;;;;;;;5.07;4.57;;;;;;;22.46;77.32;94192.44;5070682;28;20202;-44
2023/06/13 09:47:36;;;;;;;7.13;4.85;;;;;;;22.33;77.22;94192.63;5070828;28;20693;-46
2023/06/13 09:50:03;;;;;;;9.00;4.85;;;;;;;22.33;78.10;94200.44;5064884;28;20654;-44
2023/06/13 09:52:31;;;;;;;9.50;4.82;;;;;;;22.30;78.92;94190.47;5068846;28;20202;-44
2023/06/13 09:54:58;;;;;;;6.80;5.07;;;;;;;22.30;78.79;94182.66;5064831;28;20226;-45
2023/06/13 09:57:25;;;;;;;5.60;4.97;;;;;;;22.21;79.04;94166.53;5068114;28;20214;-45
2023/06/13 09:59:54;;;;;;;6.97;4.82;;;;;;;22.48;78.37;94197.41;5070529;28;20194;-44
2023/06/13 10:02:21;;;;;;;6.13;5.13;;;;;;;22.54;78.17;94202.53;5070894;28;20198;-46
2023/06/13 10:04:50;;;;;;;6.45;5.88;;;;;;;22.56;78.38;94194.50;5069690;28;20723;-45
2023/06/13 10:07:18;;;;;;;6.65;5.43;;;;;;;22.39;78.38;94162.28;5070332;28;20222;-45
2023/06/13 10:09:44;;;;;;;7.15;5.88;;;;;;;22.60;77.23;94195.63;5070315;28;20567;-44
2023/06/13 10:12:18;;;;;;;8.15;6.10;;;;;;;22.58;77.69;94191.66;5070345;28;20198;-41
2023/06/13 10:14:51;;;;;;;6.10;5.55;;;;;;;22.56;77.21;94196.31;5069362;28;20183;-45
2023/06/13 10:17:21;;;;;;;8.70;5.68;;;;;;;22.56;77.04;94191.09;5083103;28;20294;-45
2023/06/13 10:19:54;;;;;;;9.05;5.63;;;;;;;22.60;77.80;94195.63;5090523;28;20185;-42
2023/06/13 10:22:22;;;;;;;6.85;6.13;;;;;;;22.58;78.23;94179.41;5090479;28;20201;-43
2023/06/13 10:24:51;;;;;;;8.45;6.63;;;;;;;22.64;78.10;94194.16;5090184;28;20218;-43
2023/06/13 10:27:20;;;;;;;7.32;6.63;;;;;;;22.58;79.38;94197.66;5090317;28;20190;-44
2023/06/13 10:30:03;;;;;;;7.25;6.55;;;;;;;22.25;79.84;94162.47;5090155;28;20224;-40
2023/06/13 10:33:05;;;;;;;6.97;6.38;;;;;;;22.35;80.60;94190.59;5087626;28;20190;-42
2023/06/13 10:35:50;;;;;;;7.93;7.13;;;;;;;22.31;80.76;94192.03;4930343;29;20194;-43
2023/06/13 10:38:48;;;;;;;8.50;7.63;;;;;;;22.27;82.03;94189.09;4929099;29;20226;-46
2023/06/13 10:41:48;;;;;;;8.13;7.25;;;;;;;22.13;82.81;94179.88;4930346;29;20227;-45
2023/06/13 10:44:21;;;;;;;7.35;6.70;;;;;;;22.20;83.01;94187.63;4866020;29;20208;-44
2023/06/13 10:46:50;;;;;;;7.55;6.30;;;;;;;22.20;83.10;94188.41;4849275;29;20240;-47
2023/06/13 10:49:17;;;;;;;8.02;6.97;;;;;;;22.13;82.65;94173.88;4850419;29;20217;-47
2023/06/13 10:51:47;;;;;;;9.98;7.40;;;;;;;22.28;82.34;94180.28;4867479;29;20722;-43
2023/06/13 10:54:16;;;;;;;9.70;7.05;;;;;;;22.34;81.84;94178.59;4865456;29;20205;-45
2023/06/13 10:56:44;;;;;;;9.98;7.07;;;;;;;22.41;81.34;94168.03;4864106;29;20677;-43
2023/06/13 10:59:14;;;;;;;11.13;7.88;;;;;;;22.07;82.00;94099.22;4862874;29;20219;-44
2023/06/13 11:01:42;;;;;;;10.25;7.57;;;;;;;22.65;81.57;94168.91;4865966;29;20201;-44
2023/06/13 11:04:11;;;;;;;12.48;7.45;;;;;;;22.71;80.83;94153.16;4862633;29;20961;-44
2023/06/13 11:06:38;;;;;;;9.55;7.70;;;;;;;22.82;80.67;94151.56;4865205;29;20249;-44
2023/06/13 11:09:21;;;;;;;10.70;8.07;;;;;;;23.14;79.89;94179.94;4865432;29;20246;-44
2023/06/13 11:11:50;;;;;;;10.80;8.75;;;;;;;23.17;79.58;94177.66;4884255;28;21896;-44
2023/06/13 11:14:20;;;;;;;9.13;7.90;;;;;;;23.08;79.81;94168.59;5004445;28;20544;-44
2023/06/13 11:16:47;;;;;;;10.32;8.10;;;;;;;23.08;79.79;94166.00;5007251;28;20278;-44
2023/06/13 11:19:15;;;;;;;10.48;7.82;;;;;;;23.17;79.63;94167.22;5020421;28;20199;-44
2023/06/13 11:21:46;;;;;;;8.68;7.82;;;;;;;23.47;78.53;94164.47;5062073;28;20185;-45
2023/06/13 11:24:15;;;;;;;9.40;7.88;;;;;;;23.64;76.92;94143.66;5065461;28;20200;-46
2023/06/13 11:26:44;;;;;;;10.43;7.63;;;;;;;23.93;76.55;94164.59;5062325;28;20228;-45
2023/06/13 11:29:12;;;;;;;11.88;7.95;;;;;;;24.18;75.03;94179.91;5062211;28;20186;-44